createdAt,value
2022-09-06T00:00:53.629Z,13.73
2022-09-06T00:03:57.012Z,8.13
2022-09-06T00:07:00.379Z,8.82
2022-09-06T00:10:03.725Z,6.97
2022-09-06T00:13:09.880Z,7.35
2022-09-06T00:16:14.670Z,7.80
2022-09-06T00:19:18.004Z,11.75
2022-09-06T00:22:21.264Z,9.30
2022-09-06T00:25:24.555Z,9.68
2022-09-06T00:28:29.195Z,9.82
2022-09-06T00:31:32.746Z,6.93
2022-09-06T00:34:36.085Z,12.07
2022-09-06T00:37:39.409Z,10.93
2022-09-06T00:40:43.393Z,8.52
2022-09-06T00:43:48.133Z,8.48
2022-09-06T00:46:54.219Z,7.38
2022-09-06T00:49:59.821Z,8.90
2022-09-06T00:53:03.293Z,9.80
2022-09-06T00:56:07.143Z,8.00
2022-09-06T00:59:12.129Z,8.82
2022-09-06T01:02:16.082Z,7.57
2022-09-06T01:05:19.766Z,9.30
2022-09-06T01:08:33.096Z,8.77
2022-09-06T01:11:52.604Z,6.85
2022-09-06T01:15:08.926Z,6.25
2022-09-06T01:18:22.239Z,8.13
2022-09-06T01:21:37.648Z,7.60
2022-09-06T01:25:02.746Z,8.75
2022-09-06T01:28:27.244Z,8.93
2022-09-06T01:31:35.548Z,8.82
2022-09-06T01:34:44.384Z,11.23
2022-09-06T01:37:48.067Z,10.25
2022-09-06T01:40:51.366Z,7.60
2022-09-06T01:43:57.558Z,10.65
2022-09-06T01:47:10.413Z,7.32
2022-09-06T01:50:43.798Z,9.40
2022-09-06T01:54:13.375Z,9.20
2022-09-06T01:57:29.882Z,7.05
2022-09-06T02:00:40.581Z,10.88
2022-09-06T02:03:50.734Z,8.50
2022-09-06T02:07:00.292Z,7.05
2022-09-06T02:10:09.691Z,7.63
2022-09-06T02:13:16.149Z,8.57
2022-09-06T02:16:24.385Z,10.70
2022-09-06T02:19:36.172Z,17.70
2022-09-06T02:22:44.625Z,10.85
2022-09-06T02:25:52.365Z,7.38
2022-09-06T02:28:56.380Z,6.25
2022-09-06T02:32:05.630Z,8.23
2022-09-06T02:35:12.983Z,9.07
2022-09-06T02:38:17.003Z,7.25
2022-09-06T02:41:24.096Z,9.25
2022-09-06T02:44:27.368Z,10.32
2022-09-06T02:47:31.976Z,8.48
2022-09-06T02:50:35.255Z,8.18
2022-09-06T02:53:39.658Z,9.13
2022-09-06T02:56:43.256Z,7.97
2022-09-06T02:59:47.087Z,9.90
2022-09-06T03:02:51.808Z,7.47
2022-09-06T03:05:55.787Z,7.88
2022-09-06T03:09:00.139Z,8.25
2022-09-06T03:12:03.940Z,8.23
2022-09-06T03:15:07.996Z,7.18
2022-09-06T03:18:14.278Z,6.78
2022-09-06T03:21:17.631Z,8.30
2022-09-06T03:24:21.277Z,10.20
2022-09-06T03:27:24.993Z,8.93
2022-09-06T03:30:28.314Z,7.60
2022-09-06T03:33:33.010Z,11.30
2022-09-06T03:36:36.298Z,8.07
2022-09-06T03:39:39.666Z,10.18
2022-09-06T03:42:42.983Z,7.93
2022-09-06T03:45:47.918Z,8.30
2022-09-06T03:48:52.597Z,7.68
2022-09-06T03:51:55.888Z,9.15
2022-09-06T03:54:59.149Z,9.60
2022-09-06T03:58:02.428Z,8.88
2022-09-06T04:01:08.095Z,8.00
2022-09-06T04:04:12.863Z,9.82
2022-09-06T04:07:16.118Z,14.38
2022-09-06T04:10:19.540Z,12.25
2022-09-06T04:13:23.190Z,11.18
2022-09-06T04:16:26.472Z,10.50
2022-09-06T04:19:31.197Z,9.60
2022-09-06T04:22:34.432Z,14.52
2022-09-06T04:25:37.916Z,10.05
2022-09-06T04:28:41.131Z,11.13
2022-09-06T04:31:44.495Z,9.73
2022-09-06T04:35:12.013Z,9.80
2022-09-06T04:38:15.332Z,10.05
2022-09-06T04:41:19.243Z,8.77
2022-09-06T04:44:22.615Z,67.95
2022-09-06T04:47:27.048Z,35.22
2022-09-06T04:50:31.806Z,12.35
2022-09-06T04:53:42.784Z,5.60
2022-09-06T04:56:46.040Z,6.47
2022-09-06T04:59:49.489Z,11.82
2022-09-06T05:02:52.721Z,5.75
2022-09-06T05:06:07.528Z,7.38
2022-09-06T05:09:11.196Z,48.17
2022-09-06T05:12:14.435Z,144.82
2022-09-06T05:15:17.923Z,13.07
2022-09-06T05:18:21.406Z,7.53
2022-09-06T05:21:26.189Z,5.60
2022-09-06T05:24:29.457Z,6.22
2022-09-06T05:27:35.803Z,8.18
2022-09-06T05:30:39.092Z,13.48
2022-09-06T05:33:42.371Z,7.28
2022-09-06T05:36:47.075Z,7.25
2022-09-06T05:39:50.510Z,5.03
2022-09-06T05:42:53.858Z,7.47
2022-09-06T05:45:57.245Z,8.18
2022-09-06T05:49:04.892Z,36.40
2022-09-06T05:52:09.665Z,22.63
2022-09-06T05:55:13.106Z,14.00
2022-09-06T05:58:16.514Z,5.63
2022-09-06T06:01:21.587Z,5.00
2022-09-06T06:04:25.089Z,8.50
2022-09-06T06:07:29.938Z,6.45
2022-09-06T06:10:37.891Z,7.15
2022-09-06T06:13:43.291Z,9.95
2022-09-06T06:16:47.017Z,7.47
2022-09-06T06:19:50.426Z,10.07
2022-09-06T06:22:55.364Z,67.82
2022-09-06T06:25:58.820Z,14.68
2022-09-06T06:29:03.042Z,24.73
2022-09-06T06:32:06.682Z,5.60
2022-09-06T06:35:11.289Z,4.95
2022-09-06T06:38:16.093Z,8.05
2022-09-06T06:41:21.391Z,6.63
2022-09-06T06:44:24.974Z,5.75
2022-09-06T06:47:28.529Z,9.07
2022-09-06T06:50:31.899Z,6.57
2022-09-06T06:53:36.956Z,5.00
2022-09-06T06:56:42.332Z,8.07
2022-09-06T06:59:45.634Z,5.63
2022-09-06T07:02:49.113Z,5.90
2022-09-06T07:09:18.164Z,5.18
2022-09-06T07:12:21.822Z,7.35
2022-09-06T07:15:25.542Z,8.27
2022-09-06T07:18:28.933Z,7.50
2022-09-06T07:21:39.658Z,4.13
2022-09-06T07:24:44.503Z,11.27
2022-09-06T07:27:48.857Z,19.88
2022-09-06T07:30:56.055Z,8.63
2022-09-06T07:33:59.851Z,10.70
2022-09-06T07:37:03.236Z,9.38
2022-09-06T07:40:09.355Z,8.13
2022-09-06T07:43:13.036Z,6.68
2022-09-06T07:46:18.442Z,3.75
2022-09-06T07:49:22.444Z,3.22
2022-09-06T07:55:53.527Z,7.90
2022-09-06T07:58:57.506Z,4.32
2022-09-06T08:02:01.041Z,5.07
2022-09-06T08:11:52.877Z,1.83
2022-09-06T08:14:56.447Z,2.83
2022-09-06T08:17:59.995Z,15.68
2022-09-06T08:21:12.659Z,4.57
2022-09-06T08:24:16.612Z,2.50
2022-09-06T08:27:21.545Z,2.53
2022-09-06T08:30:24.891Z,1.65
2022-09-06T08:33:28.748Z,3.17
2022-09-06T08:36:33.012Z,3.95
2022-09-06T08:39:36.440Z,5.30
2022-09-06T08:42:41.898Z,1.20
2022-09-06T08:45:47.120Z,20.10
2022-09-06T08:48:50.683Z,11.75
2022-09-06T08:52:27.430Z,2.03
2022-09-06T08:55:37.703Z,1.58
2022-09-06T08:58:59.598Z,2.50
2022-09-06T09:02:12.296Z,3.72
2022-09-06T09:05:23.734Z,4.28
2022-09-06T09:08:30.675Z,1.80
2022-09-06T09:11:36.227Z,1.98
2022-09-06T09:14:43.393Z,3.30
2022-09-06T09:17:48.057Z,4.28
2022-09-06T09:20:51.628Z,5.25
2022-09-06T09:23:57.199Z,2.85
2022-09-06T09:27:08.672Z,2.78
2022-09-06T09:33:44.180Z,1.10
2022-09-06T09:40:15.932Z,1.50
2022-09-06T09:43:22.361Z,4.35
2022-09-06T09:46:34.317Z,1.58
2022-09-06T09:49:37.688Z,2.70
2022-09-06T09:52:45.715Z,1.40
2022-09-06T09:55:50.368Z,3.10
2022-09-06T09:58:56.022Z,4.95
2022-09-06T10:02:02.559Z,1.10
2022-09-06T10:05:09.935Z,1.58
2022-09-06T10:08:15.897Z,10.45
2022-09-06T10:11:39.803Z,29.50
2022-09-06T10:14:45.163Z,2.55
2022-09-06T10:17:52.799Z,1.65
2022-09-06T10:21:00.526Z,1.67
2022-09-06T10:24:27.275Z,10.20
2022-09-06T10:27:33.290Z,4.93
2022-09-06T10:30:42.364Z,3.28
2022-09-06T10:33:59.440Z,2.75
2022-09-06T10:37:13.306Z,3.88
2022-09-06T10:40:26.337Z,2.03
2022-09-06T10:43:37.882Z,1.10
2022-09-06T10:46:45.679Z,1.27
2022-09-06T10:49:56.372Z,7.18
2022-09-06T10:53:08.034Z,3.97
2022-09-06T10:56:14.811Z,2.83
2022-09-06T10:59:39.278Z,1.15
2022-09-06T11:02:48.615Z,2.70
2022-09-06T11:05:55.963Z,1.77
2022-09-06T11:09:10.310Z,2.88
2022-09-06T11:12:18.919Z,3.88
2022-09-06T11:15:23.963Z,1.17
2022-09-06T11:18:33.817Z,1.65
2022-09-06T11:22:00.990Z,1.70
2022-09-06T11:25:27.599Z,2.10
2022-09-06T11:28:36.297Z,1.83
2022-09-06T11:35:24.927Z,1.42
2022-09-06T11:38:29.664Z,3.92
2022-09-06T11:41:35.444Z,1.67
2022-09-06T11:45:16.697Z,2.13
2022-09-06T11:48:53.615Z,8.98
2022-09-06T11:51:56.964Z,1.77
2022-09-06T11:55:01.900Z,1.85
2022-09-06T11:58:10.351Z,2.00
2022-09-06T12:01:37.054Z,2.70
2022-09-06T12:05:20.996Z,4.70
2022-09-06T12:08:34.214Z,2.10
2022-09-06T12:11:44.677Z,1.92
2022-09-06T12:14:48.087Z,3.10
2022-09-06T12:17:51.571Z,2.05
2022-09-06T12:21:05.193Z,2.15
2022-09-06T12:24:10.594Z,1.40
2022-09-06T12:27:18.639Z,1.20
2022-09-06T12:30:34.455Z,4.90
2022-09-06T12:33:39.059Z,1.38
2022-09-06T12:36:58.111Z,2.58
2022-09-06T12:40:02.434Z,1.10
2022-09-06T12:43:10.418Z,0.98
2022-09-06T12:46:15.072Z,3.30
2022-09-06T12:49:21.817Z,1.13
2022-09-06T12:52:25.617Z,3.30
2022-09-06T12:55:32.880Z,4.68
2022-09-06T12:58:38.815Z,2.38
2022-09-06T13:01:48.317Z,7.55
2022-09-06T13:04:56.783Z,3.13
2022-09-06T13:08:04.013Z,1.42
2022-09-06T13:11:14.175Z,1.92
2022-09-06T13:14:25.103Z,1.23
2022-09-06T13:17:30.653Z,4.72
2022-09-06T13:20:34.011Z,2.15
2022-09-06T13:23:42.380Z,1.35
2022-09-06T13:26:45.693Z,1.15
2022-09-06T13:29:57.847Z,5.50
2022-09-06T13:33:01.999Z,2.90
2022-09-06T13:36:17.633Z,2.45
2022-09-06T13:39:32.759Z,1.67
2022-09-06T13:42:37.805Z,2.88
2022-09-06T13:45:42.625Z,4.45
2022-09-06T13:48:47.232Z,2.47
2022-09-06T13:51:50.881Z,2.05
2022-09-06T13:54:55.217Z,2.28
2022-09-06T13:57:59.306Z,2.58
2022-09-06T14:01:04.971Z,7.93
2022-09-06T14:04:09.125Z,1.30
2022-09-06T14:07:13.404Z,2.38
2022-09-06T14:10:21.531Z,8.15
2022-09-06T14:13:27.506Z,1.48
2022-09-06T14:16:32.849Z,1.27
2022-09-06T14:19:37.124Z,2.92
2022-09-06T14:22:40.884Z,2.67
2022-09-06T14:25:44.497Z,3.60
2022-09-06T14:28:49.486Z,5.10
2022-09-06T14:31:55.175Z,3.72
2022-09-06T14:35:01.147Z,6.88
2022-09-06T14:38:04.659Z,1.05
2022-09-06T14:41:09.973Z,3.38
2022-09-06T14:44:13.532Z,4.38
2022-09-06T14:47:18.436Z,1.55
2022-09-06T14:50:23.212Z,3.05
2022-09-06T14:53:39.797Z,9.32
2022-09-06T14:56:44.736Z,3.28
2022-09-06T14:59:48.363Z,3.00
2022-09-06T15:02:54.555Z,10.57
2022-09-06T15:05:59.483Z,2.38
2022-09-06T15:12:22.943Z,4.20
2022-09-06T15:15:29.995Z,1.10
2022-09-06T15:19:10.139Z,3.88
2022-09-06T15:28:58.838Z,5.20
2022-09-06T15:32:32.770Z,4.63
2022-09-06T15:36:20.945Z,2.90
2022-09-06T15:40:02.426Z,8.52
2022-09-06T15:43:10.219Z,2.47
2022-09-06T15:50:06.794Z,5.25
2022-09-06T15:53:13.968Z,5.47
2022-09-06T15:56:23.215Z,13.48
2022-09-06T15:59:33.746Z,2.47
2022-09-06T16:02:40.168Z,7.35
2022-09-06T16:09:18.297Z,5.47
2022-09-06T16:12:24.100Z,9.23
2022-09-06T16:15:29.349Z,2.42
2022-09-06T16:18:45.593Z,7.07
2022-09-06T16:21:53.303Z,3.70
2022-09-06T16:24:58.171Z,4.00
2022-09-06T16:28:05.681Z,3.80
2022-09-06T16:31:11.564Z,7.78
2022-09-06T16:34:17.450Z,4.68
2022-09-06T16:37:23.307Z,2.28
2022-09-06T16:40:30.256Z,2.50
2022-09-06T16:43:37.831Z,5.65
2022-09-06T16:46:43.078Z,2.42
2022-09-06T16:49:49.011Z,4.15
2022-09-06T16:52:53.871Z,2.70
2022-09-06T16:55:58.441Z,3.22
2022-09-06T16:59:12.672Z,5.43
2022-09-06T17:02:19.421Z,10.57
2022-09-06T17:05:33.367Z,3.95
2022-09-06T17:08:41.626Z,7.22
2022-09-06T17:11:45.209Z,7.93
2022-09-06T17:15:55.603Z,7.75
2022-09-06T17:23:01.727Z,4.38
2022-09-06T17:26:06.632Z,4.72
2022-09-06T17:29:10.578Z,6.75
2022-09-06T17:32:15.188Z,6.03
2022-09-06T17:35:22.133Z,8.45
2022-09-06T17:38:27.292Z,9.30
2022-09-06T17:41:58.770Z,11.35
2022-09-06T17:45:03.987Z,11.43
2022-09-06T17:48:07.921Z,10.82
2022-09-06T17:51:15.545Z,8.27
2022-09-06T17:54:48.874Z,13.23
2022-09-06T17:57:52.504Z,11.27
2022-09-06T18:01:06.531Z,9.30
2022-09-06T18:04:11.739Z,9.68
2022-09-06T18:07:28.758Z,12.65
2022-09-06T18:10:36.934Z,12.45
2022-09-06T18:13:43.025Z,13.38
2022-09-06T18:16:49.408Z,18.88
2022-09-06T18:19:53.575Z,15.85
2022-09-06T18:22:57.461Z,21.25
2022-09-06T18:26:05.118Z,22.35
2022-09-06T18:29:14.951Z,25.80
2022-09-06T18:32:19.385Z,34.53
2022-09-06T18:35:23.698Z,32.58
2022-09-06T18:38:28.395Z,33.95
2022-09-06T18:41:52.864Z,36.97
2022-09-06T18:44:58.481Z,27.95
2022-09-06T18:48:04.153Z,26.83
2022-09-06T18:51:12.337Z,60.38
2022-09-06T18:54:18.965Z,66.00
2022-09-06T18:57:26.010Z,68.88
2022-09-06T19:00:32.117Z,64.53
2022-09-06T19:03:39.661Z,60.72
2022-09-06T19:06:46.823Z,42.97
2022-09-06T19:09:52.343Z,38.13
2022-09-06T19:13:00.688Z,36.70
2022-09-06T19:16:07.271Z,40.72
2022-09-06T19:19:14.518Z,41.13
2022-09-06T19:22:20.028Z,32.25
2022-09-06T19:25:25.426Z,33.67
2022-09-06T19:28:33.538Z,29.17
2022-09-06T19:31:39.942Z,24.77
2022-09-06T19:34:45.160Z,28.42
2022-09-06T19:37:50.408Z,32.75
2022-09-06T19:40:55.896Z,31.42
2022-09-06T19:44:06.071Z,29.27
2022-09-06T19:47:11.389Z,30.95
2022-09-06T19:50:17.007Z,30.38
2022-09-06T19:53:22.774Z,25.23
2022-09-06T19:56:30.496Z,30.33
2022-09-06T19:59:37.966Z,27.08
2022-09-06T20:02:42.822Z,31.38
2022-09-06T20:05:48.277Z,30.63
2022-09-06T20:08:54.187Z,28.38
2022-09-06T20:11:58.649Z,29.05
2022-09-06T20:15:04.657Z,24.75
2022-09-06T20:18:10.497Z,26.13
2022-09-06T20:21:15.307Z,26.38
2022-09-06T20:24:20.457Z,21.42
2022-09-06T20:27:26.690Z,22.88
2022-09-06T20:30:32.627Z,23.50
2022-09-06T20:33:37.061Z,23.58
2022-09-06T20:36:40.563Z,20.75
2022-09-06T20:39:44.141Z,18.58
2022-09-06T20:42:47.733Z,20.00
2022-09-06T20:45:52.909Z,23.27
2022-09-06T20:48:58.300Z,21.95
2022-09-06T20:52:02.156Z,19.48
2022-09-06T20:55:06.450Z,18.98
2022-09-06T20:58:10.118Z,24.85
2022-09-06T21:01:16.645Z,23.25
2022-09-06T21:04:20.325Z,28.88
2022-09-06T21:07:24.134Z,24.75
2022-09-06T21:10:27.676Z,24.70
2022-09-06T21:13:32.407Z,24.17
2022-09-06T21:16:38.482Z,21.75
2022-09-06T21:19:42.190Z,19.33
2022-09-06T21:22:45.737Z,22.73
2022-09-06T21:25:54.296Z,20.17
2022-09-06T21:28:58.154Z,25.77
2022-09-06T21:32:03.338Z,16.73
2022-09-06T21:35:07.653Z,21.45
2022-09-06T21:38:11.117Z,17.42
2022-09-06T21:41:16.572Z,14.52
2022-09-06T21:44:20.492Z,17.30
2022-09-06T21:47:25.452Z,18.83
2022-09-06T21:50:28.884Z,15.25
2022-09-06T21:53:32.301Z,12.60
2022-09-06T21:56:37.266Z,15.68
2022-09-06T21:59:40.636Z,11.23
2022-09-06T22:02:45.473Z,11.27
2022-09-06T22:05:49.063Z,15.80
2022-09-06T22:08:52.931Z,11.05
2022-09-06T22:11:56.375Z,13.35
2022-09-06T22:14:59.792Z,12.75
2022-09-06T22:18:04.674Z,9.73
2022-09-06T22:21:10.545Z,13.57
2022-09-06T22:24:16.680Z,13.25
2022-09-06T22:27:20.060Z,9.32
2022-09-06T22:30:25.775Z,10.25
2022-09-06T22:33:31.009Z,12.65
2022-09-06T22:36:34.693Z,10.05
2022-09-06T22:39:38.141Z,11.20
2022-09-06T22:42:41.710Z,11.57
2022-09-06T22:45:51.253Z,14.48
2022-09-06T22:48:57.209Z,12.20
2022-09-06T22:52:00.604Z,10.55
2022-09-06T22:55:07.167Z,9.52
2022-09-06T22:58:10.630Z,11.52
2022-09-06T23:01:15.577Z,11.50
2022-09-06T23:04:20.795Z,11.20
2022-09-06T23:07:24.366Z,10.27
2022-09-06T23:10:27.786Z,13.52
2022-09-06T23:13:31.256Z,16.55
2022-09-06T23:16:34.798Z,11.15
2022-09-06T23:19:39.700Z,10.63
2022-09-06T23:22:43.358Z,16.80
2022-09-06T23:25:48.455Z,12.15
2022-09-06T23:28:56.502Z,10.35
2022-09-06T23:32:00.075Z,11.20
2022-09-06T23:35:05.362Z,12.38
2022-09-06T23:38:09.363Z,13.13
2022-09-06T23:41:13.426Z,13.02
2022-09-06T23:44:16.853Z,11.50
2022-09-06T23:47:20.257Z,9.68
2022-09-06T23:50:25.109Z,11.75
2022-09-06T23:53:28.538Z,9.20
2022-09-06T23:56:31.996Z,9.35
2022-09-06T23:59:36.656Z,14.40
